sensor_id;sensor_type;location;lat;lon;timestamp;P1;durP1;ratioP1;P2;durP2;ratioP2
54428;SDS011;40337;52.978;6.310;2024-01-15T00:01:33;9.82;;;2.50;;
54428;SDS011;40337;52.978;6.310;2024-01-15T00:03:59;11.27;;;2.50;;
54428;SDS011;40337;52.978;6.310;2024-01-15T00:06:25;9.80;;;2.60;;
54428;SDS011;40337;52.978;6.310;2024-01-15T00:08:52;10.48;;;2.40;;
54428;SDS011;40337;52.978;6.310;2024-01-15T00:11:17;11.07;;;2.58;;
54428;SDS011;40337;52.978;6.310;2024-01-15T00:13:43;10.70;;;2.17;;
54428;SDS011;40337;52.978;6.310;2024-01-15T00:16:09;9.43;;;2.50;;
54428;SDS011;40337;52.978;6.310;2024-01-15T00:18:35;9.85;;;2.15;;
54428;SDS011;40337;52.978;6.310;2024-01-15T00:21:01;8.80;;;2.08;;
54428;SDS011;40337;52.978;6.310;2024-01-15T00:23:26;8.38;;;2.20;;
54428;SDS011;40337;52.978;6.310;2024-01-15T00:25:53;8.38;;;2.50;;
54428;SDS011;40337;52.978;6.310;2024-01-15T00:28:19;12.50;;;2.50;;
54428;SDS011;40337;52.978;6.310;2024-01-15T00:30:44;13.80;;;3.03;;
54428;SDS011;40337;52.978;6.310;2024-01-15T00:33:10;10.80;;;2.40;;
54428;SDS011;40337;52.978;6.310;2024-01-15T00:35:37;11.60;;;2.78;;
54428;SDS011;40337;52.978;6.310;2024-01-15T00:38:03;10.27;;;2.53;;
54428;SDS011;40337;52.978;6.310;2024-01-15T00:40:28;10.77;;;2.78;;
54428;SDS011;40337;52.978;6.310;2024-01-15T00:42:54;14.55;;;3.00;;
54428;SDS011;40337;52.978;6.310;2024-01-15T00:45:20;8.57;;;2.20;;
54428;SDS011;40337;52.978;6.310;2024-01-15T00:47:45;8.68;;;2.58;;
54428;SDS011;40337;52.978;6.310;2024-01-15T00:50:11;11.55;;;2.45;;
54428;SDS011;40337;52.978;6.310;2024-01-15T00:52:37;11.30;;;3.08;;
54428;SDS011;40337;52.978;6.310;2024-01-15T00:55:03;17.77;;;3.10;;
54428;SDS011;40337;52.978;6.310;2024-01-15T00:57:29;13.43;;;2.72;;
54428;SDS011;40337;52.978;6.310;2024-01-15T00:59:54;11.18;;;3.10;;
54428;SDS011;40337;52.978;6.310;2024-01-15T01:02:20;12.57;;;2.95;;
54428;SDS011;40337;52.978;6.310;2024-01-15T01:04:46;11.00;;;2.85;;
54428;SDS011;40337;52.978;6.310;2024-01-15T01:07:11;11.95;;;3.13;;
54428;SDS011;40337;52.978;6.310;2024-01-15T01:09:37;11.95;;;3.03;;
54428;SDS011;40337;52.978;6.310;2024-01-15T01:12:03;9.77;;;2.20;;
54428;SDS011;40337;52.978;6.310;2024-01-15T01:14:28;9.00;;;2.22;;
54428;SDS011;40337;52.978;6.310;2024-01-15T01:16:54;6.75;;;1.95;;
54428;SDS011;40337;52.978;6.310;2024-01-15T01:19:20;6.00;;;1.70;;
54428;SDS011;40337;52.978;6.310;2024-01-15T01:21:45;4.85;;;1.50;;
54428;SDS011;40337;52.978;6.310;2024-01-15T01:24:11;6.20;;;1.40;;
54428;SDS011;40337;52.978;6.310;2024-01-15T01:26:37;3.88;;;1.48;;
54428;SDS011;40337;52.978;6.310;2024-01-15T01:29:02;5.95;;;1.27;;
54428;SDS011;40337;52.978;6.310;2024-01-15T01:31:28;5.00;;;1.20;;
54428;SDS011;40337;52.978;6.310;2024-01-15T01:33:53;4.38;;;1.08;;
54428;SDS011;40337;52.978;6.310;2024-01-15T01:36:19;2.85;;;0.93;;
54428;SDS011;40337;52.978;6.310;2024-01-15T01:38:45;4.72;;;1.00;;
54428;SDS011;40337;52.978;6.310;2024-01-15T01:41:10;4.22;;;1.10;;
54428;SDS011;40337;52.978;6.310;2024-01-15T01:43:36;4.85;;;1.13;;
54428;SDS011;40337;52.978;6.310;2024-01-15T01:46:02;3.88;;;1.00;;
54428;SDS011;40337;52.978;6.310;2024-01-15T01:48:28;3.30;;;1.02;;
54428;SDS011;40337;52.978;6.310;2024-01-15T01:50:56;5.93;;;1.40;;
54428;SDS011;40337;52.978;6.310;2024-01-15T01:53:24;5.60;;;1.55;;
54428;SDS011;40337;52.978;6.310;2024-01-15T01:55:51;5.53;;;1.40;;
54428;SDS011;40337;52.978;6.310;2024-01-15T01:58:18;6.50;;;1.60;;
54428;SDS011;40337;52.978;6.310;2024-01-15T02:00:45;9.15;;;1.80;;
54428;SDS011;40337;52.978;6.310;2024-01-15T02:03:11;8.98;;;2.30;;
54428;SDS011;40337;52.978;6.310;2024-01-15T02:05:37;8.27;;;1.80;;
54428;SDS011;40337;52.978;6.310;2024-01-15T02:08:05;8.45;;;1.75;;
54428;SDS011;40337;52.978;6.310;2024-01-15T02:10:31;8.73;;;2.10;;
54428;SDS011;40337;52.978;6.310;2024-01-15T02:12:57;11.82;;;2.53;;
54428;SDS011;40337;52.978;6.310;2024-01-15T02:15:23;10.43;;;2.38;;
54428;SDS011;40337;52.978;6.310;2024-01-15T02:18:02;9.48;;;2.10;;
54428;SDS011;40337;52.978;6.310;2024-01-15T02:20:29;11.85;;;2.50;;
54428;SDS011;40337;52.978;6.310;2024-01-15T02:23:11;11.95;;;2.80;;
54428;SDS011;40337;52.978;6.310;2024-01-15T02:25:39;10.27;;;2.40;;
54428;SDS011;40337;52.978;6.310;2024-01-15T02:28:06;12.23;;;2.60;;
54428;SDS011;40337;52.978;6.310;2024-01-15T02:30:35;8.63;;;2.17;;
54428;SDS011;40337;52.978;6.310;2024-01-15T02:33:05;9.00;;;2.63;;
54428;SDS011;40337;52.978;6.310;2024-01-15T02:35:32;11.73;;;2.83;;
54428;SDS011;40337;52.978;6.310;2024-01-15T02:37:58;12.82;;;2.85;;
54428;SDS011;40337;52.978;6.310;2024-01-15T02:40:24;9.18;;;2.53;;
54428;SDS011;40337;52.978;6.310;2024-01-15T02:42:50;11.60;;;2.67;;
54428;SDS011;40337;52.978;6.310;2024-01-15T02:45:16;10.98;;;2.80;;
54428;SDS011;40337;52.978;6.310;2024-01-15T02:47:42;14.07;;;2.78;;
54428;SDS011;40337;52.978;6.310;2024-01-15T02:50:07;12.65;;;2.78;;
54428;SDS011;40337;52.978;6.310;2024-01-15T02:52:33;11.30;;;2.42;;
54428;SDS011;40337;52.978;6.310;2024-01-15T02:54:59;10.80;;;2.97;;
54428;SDS011;40337;52.978;6.310;2024-01-15T02:57:24;13.10;;;2.97;;
54428;SDS011;40337;52.978;6.310;2024-01-15T02:59:50;13.60;;;2.92;;
54428;SDS011;40337;52.978;6.310;2024-01-15T03:02:16;14.88;;;3.30;;
54428;SDS011;40337;52.978;6.310;2024-01-15T03:04:44;12.98;;;2.90;;
54428;SDS011;40337;52.978;6.310;2024-01-15T03:07:10;9.80;;;2.55;;
54428;SDS011;40337;52.978;6.310;2024-01-15T03:09:36;14.48;;;3.33;;
54428;SDS011;40337;52.978;6.310;2024-01-15T03:12:03;12.82;;;2.83;;
54428;SDS011;40337;52.978;6.310;2024-01-15T03:14:29;11.77;;;2.70;;
54428;SDS011;40337;52.978;6.310;2024-01-15T03:16:55;11.93;;;2.30;;
54428;SDS011;40337;52.978;6.310;2024-01-15T03:19:20;13.13;;;2.72;;
54428;SDS011;40337;52.978;6.310;2024-01-15T03:21:46;14.57;;;2.53;;
54428;SDS011;40337;52.978;6.310;2024-01-15T03:24:12;13.20;;;3.15;;
54428;SDS011;40337;52.978;6.310;2024-01-15T03:26:37;10.52;;;2.45;;
54428;SDS011;40337;52.978;6.310;2024-01-15T03:29:03;9.45;;;2.35;;
54428;SDS011;40337;52.978;6.310;2024-01-15T03:31:29;10.60;;;2.50;;
54428;SDS011;40337;52.978;6.310;2024-01-15T03:33:54;8.88;;;2.30;;
54428;SDS011;40337;52.978;6.310;2024-01-15T03:36:21;9.55;;;2.15;;
54428;SDS011;40337;52.978;6.310;2024-01-15T03:38:47;7.20;;;2.00;;
54428;SDS011;40337;52.978;6.310;2024-01-15T03:41:13;8.93;;;2.33;;
54428;SDS011;40337;52.978;6.310;2024-01-15T03:43:38;8.98;;;2.25;;
54428;SDS011;40337;52.978;6.310;2024-01-15T03:46:05;8.55;;;1.80;;
54428;SDS011;40337;52.978;6.310;2024-01-15T03:48:31;10.10;;;2.15;;
54428;SDS011;40337;52.978;6.310;2024-01-15T03:50:56;10.35;;;2.45;;
54428;SDS011;40337;52.978;6.310;2024-01-15T03:53:22;6.50;;;1.75;;
54428;SDS011;40337;52.978;6.310;2024-01-15T03:55:48;6.43;;;1.80;;
54428;SDS011;40337;52.978;6.310;2024-01-15T03:58:14;9.90;;;1.90;;
54428;SDS011;40337;52.978;6.310;2024-01-15T04:00:40;7.15;;;1.73;;
54428;SDS011;40337;52.978;6.310;2024-01-15T04:03:07;7.50;;;2.08;;
54428;SDS011;40337;52.978;6.310;2024-01-15T04:05:32;11.77;;;2.10;;
54428;SDS011;40337;52.978;6.310;2024-01-15T04:07:58;13.13;;;2.50;;
54428;SDS011;40337;52.978;6.310;2024-01-15T04:10:24;9.05;;;2.40;;
54428;SDS011;40337;52.978;6.310;2024-01-15T04:12:49;8.77;;;1.80;;
54428;SDS011;40337;52.978;6.310;2024-01-15T04:15:15;11.82;;;2.75;;
54428;SDS011;40337;52.978;6.310;2024-01-15T04:17:40;12.73;;;2.85;;
54428;SDS011;40337;52.978;6.310;2024-01-15T04:20:06;12.23;;;2.90;;
54428;SDS011;40337;52.978;6.310;2024-01-15T04:22:33;12.90;;;2.80;;
54428;SDS011;40337;52.978;6.310;2024-01-15T04:25:00;12.73;;;2.53;;
54428;SDS011;40337;52.978;6.310;2024-01-15T04:27:26;12.50;;;2.67;;
54428;SDS011;40337;52.978;6.310;2024-01-15T04:29:51;11.15;;;2.50;;
54428;SDS011;40337;52.978;6.310;2024-01-15T04:32:18;10.07;;;2.28;;
54428;SDS011;40337;52.978;6.310;2024-01-15T04:34:43;9.82;;;1.92;;
54428;SDS011;40337;52.978;6.310;2024-01-15T04:37:09;6.93;;;2.17;;
54428;SDS011;40337;52.978;6.310;2024-01-15T04:39:35;7.45;;;1.83;;
54428;SDS011;40337;52.978;6.310;2024-01-15T04:42:00;10.95;;;2.30;;
54428;SDS011;40337;52.978;6.310;2024-01-15T04:44:26;8.27;;;2.13;;
54428;SDS011;40337;52.978;6.310;2024-01-15T04:46:52;7.70;;;2.05;;
54428;SDS011;40337;52.978;6.310;2024-01-15T04:49:18;8.35;;;1.88;;
54428;SDS011;40337;52.978;6.310;2024-01-15T04:51:44;7.18;;;1.80;;
54428;SDS011;40337;52.978;6.310;2024-01-15T04:54:09;7.55;;;1.63;;
54428;SDS011;40337;52.978;6.310;2024-01-15T04:56:36;7.55;;;1.52;;
54428;SDS011;40337;52.978;6.310;2024-01-15T04:59:02;5.47;;;1.50;;
54428;SDS011;40337;52.978;6.310;2024-01-15T05:01:31;7.15;;;1.60;;
54428;SDS011;40337;52.978;6.310;2024-01-15T05:03:57;7.40;;;1.60;;
54428;SDS011;40337;52.978;6.310;2024-01-15T05:06:23;9.35;;;1.77;;
54428;SDS011;40337;52.978;6.310;2024-01-15T05:08:49;7.10;;;1.63;;
54428;SDS011;40337;52.978;6.310;2024-01-15T05:11:15;5.07;;;1.58;;
54428;SDS011;40337;52.978;6.310;2024-01-15T05:13:40;8.10;;;1.85;;
54428;SDS011;40337;52.978;6.310;2024-01-15T05:16:06;9.07;;;2.20;;
54428;SDS011;40337;52.978;6.310;2024-01-15T05:18:32;7.13;;;1.80;;
54428;SDS011;40337;52.978;6.310;2024-01-15T05:20:57;9.30;;;2.05;;
54428;SDS011;40337;52.978;6.310;2024-01-15T05:23:23;7.50;;;1.92;;
54428;SDS011;40337;52.978;6.310;2024-01-15T05:25:48;7.80;;;2.05;;
54428;SDS011;40337;52.978;6.310;2024-01-15T05:28:14;8.20;;;1.98;;
54428;SDS011;40337;52.978;6.310;2024-01-15T05:30:40;10.95;;;2.40;;
54428;SDS011;40337;52.978;6.310;2024-01-15T05:33:05;11.23;;;2.75;;
54428;SDS011;40337;52.978;6.310;2024-01-15T05:35:32;14.38;;;2.55;;
54428;SDS011;40337;52.978;6.310;2024-01-15T05:37:58;15.95;;;3.13;;
54428;SDS011;40337;52.978;6.310;2024-01-15T05:40:24;12.77;;;2.70;;
54428;SDS011;40337;52.978;6.310;2024-01-15T05:42:50;13.15;;;2.78;;
54428;SDS011;40337;52.978;6.310;2024-01-15T05:45:15;10.65;;;2.90;;
54428;SDS011;40337;52.978;6.310;2024-01-15T05:47:41;11.48;;;2.42;;
54428;SDS011;40337;52.978;6.310;2024-01-15T05:50:08;11.05;;;2.53;;
54428;SDS011;40337;52.978;6.310;2024-01-15T05:52:34;8.88;;;2.17;;
54428;SDS011;40337;52.978;6.310;2024-01-15T05:55:00;9.25;;;2.20;;
54428;SDS011;40337;52.978;6.310;2024-01-15T05:57:25;13.18;;;2.33;;
54428;SDS011;40337;52.978;6.310;2024-01-15T05:59:51;8.10;;;2.25;;
54428;SDS011;40337;52.978;6.310;2024-01-15T06:02:17;12.90;;;2.60;;
54428;SDS011;40337;52.978;6.310;2024-01-15T06:04:42;11.32;;;2.63;;
54428;SDS011;40337;52.978;6.310;2024-01-15T06:07:08;11.77;;;2.75;;
54428;SDS011;40337;52.978;6.310;2024-01-15T06:09:33;11.45;;;2.33;;
54428;SDS011;40337;52.978;6.310;2024-01-15T06:11:59;16.35;;;2.88;;
54428;SDS011;40337;52.978;6.310;2024-01-15T06:14:25;12.98;;;2.95;;
54428;SDS011;40337;52.978;6.310;2024-01-15T06:16:50;9.05;;;2.30;;
54428;SDS011;40337;52.978;6.310;2024-01-15T06:19:17;12.10;;;2.90;;
54428;SDS011;40337;52.978;6.310;2024-01-15T06:21:42;10.68;;;2.90;;
54428;SDS011;40337;52.978;6.310;2024-01-15T06:24:08;13.45;;;3.05;;
54428;SDS011;40337;52.978;6.310;2024-01-15T06:26:35;12.65;;;3.00;;
54428;SDS011;40337;52.978;6.310;2024-01-15T06:29:00;13.48;;;2.83;;
54428;SDS011;40337;52.978;6.310;2024-01-15T06:31:28;14.00;;;2.67;;
54428;SDS011;40337;52.978;6.310;2024-01-15T06:33:54;12.75;;;2.50;;
54428;SDS011;40337;52.978;6.310;2024-01-15T06:36:20;15.23;;;2.88;;
54428;SDS011;40337;52.978;6.310;2024-01-15T06:38:46;13.10;;;2.55;;
54428;SDS011;40337;52.978;6.310;2024-01-15T06:41:12;14.35;;;3.30;;
54428;SDS011;40337;52.978;6.310;2024-01-15T06:43:38;13.10;;;2.83;;
54428;SDS011;40337;52.978;6.310;2024-01-15T06:46:03;12.40;;;3.03;;
54428;SDS011;40337;52.978;6.310;2024-01-15T06:48:29;11.63;;;2.60;;
54428;SDS011;40337;52.978;6.310;2024-01-15T06:50:55;13.35;;;2.83;;
54428;SDS011;40337;52.978;6.310;2024-01-15T06:53:21;11.15;;;3.40;;
54428;SDS011;40337;52.978;6.310;2024-01-15T06:55:47;15.05;;;3.33;;
54428;SDS011;40337;52.978;6.310;2024-01-15T06:58:14;13.57;;;3.08;;
54428;SDS011;40337;52.978;6.310;2024-01-15T07:00:39;15.48;;;3.50;;
54428;SDS011;40337;52.978;6.310;2024-01-15T07:03:05;12.02;;;3.15;;
54428;SDS011;40337;52.978;6.310;2024-01-15T07:05:32;13.57;;;3.20;;
54428;SDS011;40337;52.978;6.310;2024-01-15T07:07:58;13.20;;;2.72;;
54428;SDS011;40337;52.978;6.310;2024-01-15T07:10:23;12.05;;;2.85;;
54428;SDS011;40337;52.978;6.310;2024-01-15T07:12:49;11.50;;;2.55;;
54428;SDS011;40337;52.978;6.310;2024-01-15T07:15:14;11.63;;;2.90;;
54428;SDS011;40337;52.978;6.310;2024-01-15T07:17:41;10.65;;;2.28;;
54428;SDS011;40337;52.978;6.310;2024-01-15T07:20:07;8.18;;;2.20;;
54428;SDS011;40337;52.978;6.310;2024-01-15T07:22:37;8.45;;;2.20;;
54428;SDS011;40337;52.978;6.310;2024-01-15T07:25:03;9.90;;;2.58;;
54428;SDS011;40337;52.978;6.310;2024-01-15T07:27:30;14.68;;;3.13;;
54428;SDS011;40337;52.978;6.310;2024-01-15T07:29:56;9.60;;;2.45;;
54428;SDS011;40337;52.978;6.310;2024-01-15T07:32:22;9.57;;;2.45;;
54428;SDS011;40337;52.978;6.310;2024-01-15T07:34:48;10.10;;;2.55;;
54428;SDS011;40337;52.978;6.310;2024-01-15T07:37:14;12.05;;;2.75;;
54428;SDS011;40337;52.978;6.310;2024-01-15T07:39:40;10.95;;;2.78;;
54428;SDS011;40337;52.978;6.310;2024-01-15T07:42:05;11.60;;;2.80;;
54428;SDS011;40337;52.978;6.310;2024-01-15T07:44:32;11.90;;;2.83;;
54428;SDS011;40337;52.978;6.310;2024-01-15T07:46:58;12.40;;;2.95;;
54428;SDS011;40337;52.978;6.310;2024-01-15T07:49:23;10.40;;;2.85;;
54428;SDS011;40337;52.978;6.310;2024-01-15T07:51:49;14.23;;;3.50;;
54428;SDS011;40337;52.978;6.310;2024-01-15T07:54:15;13.15;;;3.05;;
54428;SDS011;40337;52.978;6.310;2024-01-15T07:59:38;9.32;;;2.58;;
54428;SDS011;40337;52.978;6.310;2024-01-15T08:02:05;13.52;;;2.78;;
54428;SDS011;40337;52.978;6.310;2024-01-15T08:04:31;11.68;;;2.97;;
54428;SDS011;40337;52.978;6.310;2024-01-15T08:06:56;11.75;;;2.80;;
54428;SDS011;40337;52.978;6.310;2024-01-15T08:09:22;11.40;;;2.65;;
54428;SDS011;40337;52.978;6.310;2024-01-15T08:11:48;10.93;;;2.90;;
54428;SDS011;40337;52.978;6.310;2024-01-15T08:14:17;15.00;;;3.42;;
54428;SDS011;40337;52.978;6.310;2024-01-15T08:16:43;13.60;;;3.33;;
54428;SDS011;40337;52.978;6.310;2024-01-15T08:19:08;15.63;;;3.78;;
54428;SDS011;40337;52.978;6.310;2024-01-15T08:21:34;10.07;;;2.70;;
54428;SDS011;40337;52.978;6.310;2024-01-15T08:24:00;11.38;;;3.22;;
54428;SDS011;40337;52.978;6.310;2024-01-15T08:26:29;11.45;;;2.97;;
54428;SDS011;40337;52.978;6.310;2024-01-15T08:28:55;14.60;;;3.28;;
54428;SDS011;40337;52.978;6.310;2024-01-15T08:31:22;11.27;;;2.58;;
54428;SDS011;40337;52.978;6.310;2024-01-15T08:33:48;15.93;;;2.78;;
54428;SDS011;40337;52.978;6.310;2024-01-15T08:36:13;9.15;;;2.28;;
54428;SDS011;40337;52.978;6.310;2024-01-15T08:38:39;12.05;;;2.67;;
54428;SDS011;40337;52.978;6.310;2024-01-15T08:41:04;13.45;;;2.63;;
54428;SDS011;40337;52.978;6.310;2024-01-15T08:43:30;13.45;;;2.60;;
54428;SDS011;40337;52.978;6.310;2024-01-15T08:45:56;12.30;;;2.65;;
54428;SDS011;40337;52.978;6.310;2024-01-15T08:48:22;10.05;;;2.47;;
54428;SDS011;40337;52.978;6.310;2024-01-15T08:50:48;10.15;;;2.38;;
54428;SDS011;40337;52.978;6.310;2024-01-15T08:53:14;10.93;;;2.70;;
54428;SDS011;40337;52.978;6.310;2024-01-15T08:55:40;9.20;;;2.38;;
54428;SDS011;40337;52.978;6.310;2024-01-15T08:58:07;11.05;;;2.85;;
54428;SDS011;40337;52.978;6.310;2024-01-15T09:00:33;12.27;;;2.67;;
54428;SDS011;40337;52.978;6.310;2024-01-15T09:02:59;7.22;;;1.80;;
54428;SDS011;40337;52.978;6.310;2024-01-15T09:05:25;8.27;;;2.40;;
54428;SDS011;40337;52.978;6.310;2024-01-15T09:07:51;12.18;;;2.60;;
54428;SDS011;40337;52.978;6.310;2024-01-15T09:10:17;12.07;;;3.08;;
54428;SDS011;40337;52.978;6.310;2024-01-15T09:12:43;10.73;;;2.70;;
54428;SDS011;40337;52.978;6.310;2024-01-15T09:15:09;9.93;;;2.30;;
54428;SDS011;40337;52.978;6.310;2024-01-15T09:17:35;10.57;;;2.63;;
54428;SDS011;40337;52.978;6.310;2024-01-15T09:20:00;13.07;;;2.78;;
54428;SDS011;40337;52.978;6.310;2024-01-15T09:22:26;9.25;;;2.38;;
54428;SDS011;40337;52.978;6.310;2024-01-15T09:24:52;11.13;;;2.30;;
54428;SDS011;40337;52.978;6.310;2024-01-15T09:27:18;8.40;;;2.30;;
54428;SDS011;40337;52.978;6.310;2024-01-15T09:29:44;11.00;;;2.25;;
54428;SDS011;40337;52.978;6.310;2024-01-15T09:32:11;8.98;;;2.55;;
54428;SDS011;40337;52.978;6.310;2024-01-15T09:34:38;7.80;;;2.22;;
54428;SDS011;40337;52.978;6.310;2024-01-15T09:37:03;12.98;;;2.70;;
54428;SDS011;40337;52.978;6.310;2024-01-15T09:39:30;8.68;;;2.30;;
54428;SDS011;40337;52.978;6.310;2024-01-15T09:41:57;8.13;;;2.55;;
54428;SDS011;40337;52.978;6.310;2024-01-15T09:44:23;13.18;;;3.10;;
54428;SDS011;40337;52.978;6.310;2024-01-15T09:46:48;10.00;;;2.60;;
54428;SDS011;40337;52.978;6.310;2024-01-15T09:49:17;10.52;;;2.42;;
54428;SDS011;40337;52.978;6.310;2024-01-15T09:51:44;8.52;;;2.53;;
54428;SDS011;40337;52.978;6.310;2024-01-15T09:54:10;9.77;;;2.70;;
54428;SDS011;40337;52.978;6.310;2024-01-15T09:56:38;10.68;;;2.60;;
54428;SDS011;40337;52.978;6.310;2024-01-15T09:59:04;10.32;;;2.47;;
54428;SDS011;40337;52.978;6.310;2024-01-15T10:01:31;10.43;;;2.83;;
54428;SDS011;40337;52.978;6.310;2024-01-15T10:03:57;11.40;;;2.28;;
54428;SDS011;40337;52.978;6.310;2024-01-15T10:06:24;7.30;;;2.17;;
54428;SDS011;40337;52.978;6.310;2024-01-15T10:08:56;12.73;;;2.60;;
54428;SDS011;40337;52.978;6.310;2024-01-15T10:11:24;12.68;;;2.38;;
54428;SDS011;40337;52.978;6.310;2024-01-15T10:13:50;8.95;;;2.58;;
54428;SDS011;40337;52.978;6.310;2024-01-15T10:16:18;11.43;;;2.40;;
54428;SDS011;40337;52.978;6.310;2024-01-15T10:18:45;9.30;;;2.03;;
54428;SDS011;40337;52.978;6.310;2024-01-15T10:21:11;7.70;;;2.10;;
54428;SDS011;40337;52.978;6.310;2024-01-15T10:23:37;11.25;;;2.25;;
54428;SDS011;40337;52.978;6.310;2024-01-15T10:26:03;9.77;;;2.63;;
54428;SDS011;40337;52.978;6.310;2024-01-15T10:28:29;9.40;;;2.40;;
54428;SDS011;40337;52.978;6.310;2024-01-15T10:30:55;8.60;;;2.30;;
54428;SDS011;40337;52.978;6.310;2024-01-15T10:33:23;8.48;;;1.83;;
54428;SDS011;40337;52.978;6.310;2024-01-15T10:35:57;6.65;;;1.80;;
54428;SDS011;40337;52.978;6.310;2024-01-15T10:38:24;6.40;;;1.40;;
54428;SDS011;40337;52.978;6.310;2024-01-15T10:40:54;5.22;;;1.60;;
54428;SDS011;40337;52.978;6.310;2024-01-15T10:43:21;3.85;;;1.30;;
54428;SDS011;40337;52.978;6.310;2024-01-15T10:45:50;5.72;;;1.50;;
54428;SDS011;40337;52.978;6.310;2024-01-15T10:48:17;4.72;;;1.48;;
54428;SDS011;40337;52.978;6.310;2024-01-15T10:50:44;3.70;;;1.25;;
54428;SDS011;40337;52.978;6.310;2024-01-15T10:53:11;4.38;;;1.10;;
54428;SDS011;40337;52.978;6.310;2024-01-15T10:55:38;6.28;;;1.40;;
54428;SDS011;40337;52.978;6.310;2024-01-15T10:58:06;5.47;;;1.20;;
54428;SDS011;40337;52.978;6.310;2024-01-15T11:00:33;5.45;;;1.48;;
54428;SDS011;40337;52.978;6.310;2024-01-15T11:03:03;4.47;;;1.20;;
54428;SDS011;40337;52.978;6.310;2024-01-15T11:05:37;3.60;;;1.20;;
54428;SDS011;40337;52.978;6.310;2024-01-15T11:08:05;4.35;;;1.40;;
54428;SDS011;40337;52.978;6.310;2024-01-15T11:10:47;4.28;;;1.35;;
54428;SDS011;40337;52.978;6.310;2024-01-15T11:16:01;6.35;;;1.73;;
54428;SDS011;40337;52.978;6.310;2024-01-15T11:18:35;5.47;;;1.52;;
54428;SDS011;40337;52.978;6.310;2024-01-15T11:23:47;10.18;;;2.67;;
54428;SDS011;40337;52.978;6.310;2024-01-15T11:26:26;6.72;;;1.95;;
54428;SDS011;40337;52.978;6.310;2024-01-15T11:34:21;5.47;;;1.40;;
54428;SDS011;40337;52.978;6.310;2024-01-15T11:37:24;7.28;;;1.92;;
54428;SDS011;40337;52.978;6.310;2024-01-15T11:39:52;5.82;;;1.30;;
54428;SDS011;40337;52.978;6.310;2024-01-15T11:42:19;5.53;;;1.30;;
54428;SDS011;40337;52.978;6.310;2024-01-15T11:44:46;6.93;;;1.50;;
54428;SDS011;40337;52.978;6.310;2024-01-15T11:47:12;6.88;;;1.70;;
54428;SDS011;40337;52.978;6.310;2024-01-15T11:52:19;6.22;;;1.27;;
54428;SDS011;40337;52.978;6.310;2024-01-15T11:57:42;4.18;;;1.10;;
54428;SDS011;40337;52.978;6.310;2024-01-15T12:00:11;3.22;;;1.00;;
54428;SDS011;40337;52.978;6.310;2024-01-15T12:02:39;3.92;;;1.00;;
54428;SDS011;40337;52.978;6.310;2024-01-15T12:05:06;4.15;;;1.23;;
54428;SDS011;40337;52.978;6.310;2024-01-15T12:07:33;5.00;;;1.20;;
54428;SDS011;40337;52.978;6.310;2024-01-15T12:09:59;7.03;;;1.63;;
54428;SDS011;40337;52.978;6.310;2024-01-15T12:12:35;6.63;;;1.60;;
54428;SDS011;40337;52.978;6.310;2024-01-15T12:15:15;6.00;;;1.60;;
54428;SDS011;40337;52.978;6.310;2024-01-15T12:17:41;6.40;;;1.98;;
54428;SDS011;40337;52.978;6.310;2024-01-15T12:20:07;6.57;;;1.88;;
54428;SDS011;40337;52.978;6.310;2024-01-15T12:22:33;5.85;;;1.63;;
54428;SDS011;40337;52.978;6.310;2024-01-15T12:24:58;8.05;;;1.95;;
54428;SDS011;40337;52.978;6.310;2024-01-15T12:27:25;4.55;;;1.48;;
54428;SDS011;40337;52.978;6.310;2024-01-15T12:29:52;7.63;;;1.88;;
54428;SDS011;40337;52.978;6.310;2024-01-15T12:32:18;6.80;;;2.00;;
54428;SDS011;40337;52.978;6.310;2024-01-15T12:34:45;10.30;;;2.00;;
54428;SDS011;40337;52.978;6.310;2024-01-15T12:37:11;7.65;;;1.90;;
54428;SDS011;40337;52.978;6.310;2024-01-15T12:39:37;6.57;;;1.80;;
54428;SDS011;40337;52.978;6.310;2024-01-15T12:42:05;8.70;;;2.30;;
54428;SDS011;40337;52.978;6.310;2024-01-15T12:44:31;7.30;;;2.20;;
54428;SDS011;40337;52.978;6.310;2024-01-15T12:47:04;7.22;;;1.90;;
54428;SDS011;40337;52.978;6.310;2024-01-15T12:49:30;7.55;;;1.98;;
54428;SDS011;40337;52.978;6.310;2024-01-15T12:51:57;6.25;;;2.00;;
54428;SDS011;40337;52.978;6.310;2024-01-15T12:54:44;6.93;;;1.98;;
54428;SDS011;40337;52.978;6.310;2024-01-15T12:57:12;7.35;;;2.08;;
54428;SDS011;40337;52.978;6.310;2024-01-15T12:59:38;8.77;;;2.15;;
54428;SDS011;40337;52.978;6.310;2024-01-15T13:02:04;5.85;;;1.60;;
54428;SDS011;40337;52.978;6.310;2024-01-15T13:04:30;7.72;;;1.42;;
54428;SDS011;40337;52.978;6.310;2024-01-15T13:06:56;5.55;;;1.60;;
54428;SDS011;40337;52.978;6.310;2024-01-15T13:09:22;6.45;;;1.70;;
54428;SDS011;40337;52.978;6.310;2024-01-15T13:11:47;6.90;;;1.50;;
54428;SDS011;40337;52.978;6.310;2024-01-15T13:14:13;6.60;;;1.67;;
54428;SDS011;40337;52.978;6.310;2024-01-15T13:16:39;6.75;;;1.77;;
54428;SDS011;40337;52.978;6.310;2024-01-15T13:19:06;6.43;;;1.83;;
54428;SDS011;40337;52.978;6.310;2024-01-15T13:21:41;5.93;;;1.98;;
54428;SDS011;40337;52.978;6.310;2024-01-15T13:24:07;8.90;;;2.25;;
54428;SDS011;40337;52.978;6.310;2024-01-15T13:26:34;4.95;;;1.40;;
54428;SDS011;40337;52.978;6.310;2024-01-15T13:29:01;9.02;;;2.03;;
54428;SDS011;40337;52.978;6.310;2024-01-15T13:31:28;7.50;;;1.40;;
54428;SDS011;40337;52.978;6.310;2024-01-15T13:33:54;7.25;;;2.00;;
54428;SDS011;40337;52.978;6.310;2024-01-15T13:36:23;7.88;;;2.25;;
54428;SDS011;40337;52.978;6.310;2024-01-15T13:38:49;8.35;;;2.35;;
54428;SDS011;40337;52.978;6.310;2024-01-15T13:41:15;9.32;;;2.60;;
54428;SDS011;40337;52.978;6.310;2024-01-15T13:43:44;10.48;;;2.63;;
54428;SDS011;40337;52.978;6.310;2024-01-15T13:46:11;16.58;;;3.40;;
54428;SDS011;40337;52.978;6.310;2024-01-15T13:48:36;7.15;;;2.33;;
54428;SDS011;40337;52.978;6.310;2024-01-15T13:51:02;10.02;;;2.22;;
54428;SDS011;40337;52.978;6.310;2024-01-15T13:53:27;6.85;;;1.88;;
54428;SDS011;40337;52.978;6.310;2024-01-15T13:55:54;9.20;;;2.13;;
54428;SDS011;40337;52.978;6.310;2024-01-15T13:58:20;10.15;;;2.55;;
54428;SDS011;40337;52.978;6.310;2024-01-15T14:00:46;10.32;;;2.53;;
54428;SDS011;40337;52.978;6.310;2024-01-15T14:03:13;8.25;;;2.35;;
54428;SDS011;40337;52.978;6.310;2024-01-15T14:05:39;12.88;;;2.55;;
54428;SDS011;40337;52.978;6.310;2024-01-15T14:08:05;9.40;;;2.03;;
54428;SDS011;40337;52.978;6.310;2024-01-15T14:10:31;13.40;;;3.67;;
54428;SDS011;40337;52.978;6.310;2024-01-15T14:12:57;10.25;;;3.22;;
54428;SDS011;40337;52.978;6.310;2024-01-15T14:15:23;11.13;;;3.03;;
54428;SDS011;40337;52.978;6.310;2024-01-15T14:17:48;14.90;;;2.92;;
54428;SDS011;40337;52.978;6.310;2024-01-15T14:20:14;8.98;;;2.70;;
54428;SDS011;40337;52.978;6.310;2024-01-15T14:22:40;11.30;;;2.70;;
54428;SDS011;40337;52.978;6.310;2024-01-15T14:25:06;11.00;;;2.38;;
54428;SDS011;40337;52.978;6.310;2024-01-15T14:27:33;6.35;;;1.90;;
54428;SDS011;40337;52.978;6.310;2024-01-15T14:29:58;8.57;;;1.95;;
54428;SDS011;40337;52.978;6.310;2024-01-15T14:32:24;6.95;;;1.83;;
54428;SDS011;40337;52.978;6.310;2024-01-15T14:34:49;12.65;;;2.10;;
54428;SDS011;40337;52.978;6.310;2024-01-15T14:37:15;12.27;;;2.72;;
54428;SDS011;40337;52.978;6.310;2024-01-15T14:39:41;10.52;;;2.60;;
54428;SDS011;40337;52.978;6.310;2024-01-15T14:42:06;7.40;;;2.63;;
54428;SDS011;40337;52.978;6.310;2024-01-15T14:44:32;8.23;;;2.63;;
54428;SDS011;40337;52.978;6.310;2024-01-15T14:47:00;8.48;;;2.28;;
54428;SDS011;40337;52.978;6.310;2024-01-15T14:49:25;9.45;;;2.22;;
54428;SDS011;40337;52.978;6.310;2024-01-15T14:51:51;7.13;;;2.10;;
54428;SDS011;40337;52.978;6.310;2024-01-15T14:54:16;6.95;;;2.00;;
54428;SDS011;40337;52.978;6.310;2024-01-15T14:56:42;10.43;;;2.05;;